Time;durP1;ratioP1;P1;durP2;ratioP2;P2;SDS_P1;SDS_P2;PMS_P1;PMS_P2;Temp;Humidity;BMP_temperature;BMP_pressure;BME280_temperature;BME280_humidity;BME280_pressure;Samples;Min_cycle;Max_cycle;Signal;HPM_P1;HPM_P2
2023/05/10 00:01:26;;;;;;;5.50;3.50;;;;;;;9.93;51.52;100600.33;105749;1251;74556;-60
2023/05/10 00:03:54;;;;;;;7.10;3.60;;;;;;;9.91;51.64;100598.08;105760;1254;83218;-60
2023/05/10 00:06:23;;;;;;;6.00;3.70;;;;;;;9.90;51.65;100595.17;105767;1251;73698;-60
2023/05/10 00:08:51;;;;;;;6.00;3.70;;;;;;;9.87;51.79;100593.15;105748;1251;69630;-60
2023/05/10 00:11:20;;;;;;;6.80;3.70;;;;;;;9.85;51.69;100590.62;105763;1254;69102;-60
2023/05/10 00:13:50;;;;;;;5.90;3.20;;;;;;;9.83;51.85;100590.30;105747;1254;73819;-60
2023/05/10 00:16:18;;;;;;;5.80;3.70;;;;;;;9.80;52.08;100595.45;105732;1253;83559;-60
2023/05/10 00:18:47;;;;;;;5.20;3.60;;;;;;;9.78;52.14;100592.02;105726;1253;73491;-60
2023/05/10 00:21:15;;;;;;;5.10;3.90;;;;;;;9.75;52.10;100588.45;105672;1251;69149;-60
2023/05/10 00:23:43;;;;;;;6.80;3.50;;;;;;;9.73;52.20;100586.11;105753;1254;69189;-60
2023/05/10 00:26:11;;;;;;;6.70;4.20;;;;;;;9.70;52.29;100588.10;105727;1251;74535;-60
2023/05/10 00:28:41;;;;;;;6.70;3.90;;;;;;;9.66;52.52;100587.87;105820;1253;83068;-60
2023/05/10 00:31:09;;;;;;;5.40;3.80;;;;;;;9.62;52.55;100587.80;105676;1253;72766;-60
2023/05/10 00:33:37;;;;;;;6.50;3.80;;;;;;;9.59;52.61;100587.71;105775;1251;69153;-60
2023/05/10 00:36:07;;;;;;;11.20;4.10;;;;;;;9.56;53.02;100587.80;105817;1253;69525;-60
2023/05/10 00:38:35;;;;;;;6.10;4.10;;;;;;;9.52;52.82;100584.80;105712;1257;75010;-60
2023/05/10 00:41:03;;;;;;;8.50;3.90;;;;;;;9.49;52.97;100584.20;105652;1255;83409;-60
2023/05/10 00:43:33;;;;;;;6.30;4.00;;;;;;;9.46;53.05;100579.73;105773;1251;74344;-60
2023/05/10 00:46:01;;;;;;;5.70;3.60;;;;;;;9.43;53.28;100576.52;105801;1254;69313;-60
2023/05/10 00:48:29;;;;;;;7.20;4.10;;;;;;;9.40;53.34;100576.08;105728;1254;71827;-60
2023/05/10 00:50:58;;;;;;;6.40;3.70;;;;;;;9.36;53.39;100571.98;105789;1254;74408;-60
2023/05/10 00:53:27;;;;;;;6.40;4.10;;;;;;;9.33;53.46;100570.36;105765;1254;83439;-60
2023/05/10 00:55:55;;;;;;;7.90;3.80;;;;;;;9.29;53.88;100568.89;105779;1251;72630;-60
2023/05/10 00:58:27;;;;;;;6.90;4.50;;;;;;;9.27;53.90;100571.23;105849;1250;69205;-60
2023/05/10 01:00:56;;;;;;;7.90;4.20;;;;;;;9.25;54.17;100566.95;105733;1254;69289;-60
2023/05/10 01:03:26;;;;;;;6.50;3.90;;;;;;;9.21;54.41;100569.48;105782;1251;74877;-60
2023/05/10 01:05:54;;;;;;;7.80;3.90;;;;;;;9.15;54.61;100569.82;105698;1251;83395;-60
2023/05/10 01:08:22;;;;;;;8.10;4.50;;;;;;;9.10;54.69;100565.08;105704;1254;72071;-60
2023/05/10 01:10:52;;;;;;;6.10;3.90;;;;;;;9.07;54.92;100567.10;105625;1257;69194;-60
2023/05/10 01:13:34;;;;;;;7.70;4.00;;;;;;;9.02;54.96;100562.16;105741;1254;69144;-60
2023/05/10 01:16:03;;;;;;;6.30;4.10;;;;;;;8.97;55.52;100566.14;105790;1253;73895;-60
2023/05/10 01:18:34;;;;;;;6.70;4.20;;;;;;;8.89;55.40;100560.95;105690;1251;81918;-60
2023/05/10 01:21:41;;;;;;;6.20;4.40;;;;;;;8.78;56.04;100561.95;105652;1253;72838;-60
2023/05/10 01:24:09;;;;;;;6.60;4.60;;;;;;;8.64;56.12;100559.02;105707;1253;69142;-60
2023/05/10 01:27:15;;;;;;;7.10;4.00;;;;;;;8.59;56.42;100561.08;105814;1253;69195;-60
2023/05/10 01:30:16;;;;;;;6.30;4.40;;;;;;;8.54;56.78;100563.13;105811;1253;73017;-60
2023/05/10 01:33:17;;;;;;;7.80;4.40;;;;;;;8.48;56.92;100561.52;105746;1254;83152;-60
2023/05/10 01:36:12;;;;;;;7.00;4.30;;;;;;;8.43;57.23;100567.05;105760;1254;73685;-60
2023/05/10 01:38:49;;;;;;;10.40;4.40;;;;;;;8.40;57.25;100565.05;105450;1254;69144;-60
2023/05/10 01:41:46;;;;;;;6.70;4.30;;;;;;;8.38;57.44;100565.95;105740;1251;69131;-60
2023/05/10 01:44:48;;;;;;;11.20;4.30;;;;;;;8.34;57.55;100562.91;105811;1251;74877;-60
2023/05/10 01:47:39;;;;;;;8.60;4.40;;;;;;;8.33;57.89;100558.73;105711;1254;83371;-60
2023/05/10 01:50:15;;;;;;;8.90;4.60;;;;;;;8.31;58.04;100558.42;105538;1253;72867;-60
2023/05/10 01:52:50;;;;;;;6.90;4.60;;;;;;;8.25;58.37;100556.16;105643;1251;69172;-60
2023/05/10 01:55:21;;;;;;;5.30;4.20;;;;;;;8.15;58.50;100555.38;105797;1251;69163;-60
2023/05/10 01:58:01;;;;;;;6.40;3.90;;;;;;;8.03;58.62;100553.38;105709;1256;74972;-60
2023/05/10 02:00:30;;;;;;;7.70;4.40;;;;;;;7.92;58.57;100549.67;105661;1251;83246;-60
2023/05/10 02:03:00;;;;;;;7.70;4.40;;;;;;;7.84;58.72;100552.95;105659;1256;72766;-61
2023/05/10 02:05:29;;;;;;;5.90;3.90;;;;;;;7.83;58.91;100551.25;105775;1250;69083;-61
2023/05/10 02:07:59;;;;;;;7.70;4.40;;;;;;;7.80;59.03;100551.34;105632;1251;69195;-61
2023/05/10 02:10:28;;;;;;;6.00;4.40;;;;;;;7.80;59.27;100547.14;105718;1256;73929;-61
2023/05/10 02:12:58;;;;;;;8.80;5.00;;;;;;;7.80;59.57;100547.84;105609;1251;83303;-61
2023/05/10 02:15:27;;;;;;;7.40;4.60;;;;;;;7.76;59.63;100546.04;105663;1252;73788;-61
2023/05/10 02:17:56;;;;;;;7.90;5.10;;;;;;;7.68;59.79;100542.90;105700;1256;69496;-61
2023/05/10 02:20:25;;;;;;;7.50;4.60;;;;;;;7.60;59.89;100546.04;105715;1254;69261;-61
2023/05/10 02:22:55;;;;;;;6.70;4.70;;;;;;;7.52;60.26;100546.23;105785;1251;75034;-61
2023/05/10 02:25:24;;;;;;;;;;;;;;;7.44;60.44;100547.97;105625;1251;82516;-61
2023/05/10 02:27:55;;;;;;;7.20;4.60;;;;;;;7.38;60.70;100544.42;105821;1251;72499;-61
2023/05/10 02:30:24;;;;;;;9.30;4.50;;;;;;;7.33;61.20;100547.84;105606;1256;69109;-61
2023/05/10 02:32:52;;;;;;;6.40;4.30;;;;;;;7.28;61.27;100545.52;105653;1257;69074;-61
2023/05/10 02:35:21;;;;;;;8.30;4.60;;;;;;;7.22;61.51;100545.30;105675;1251;74799;-61
2023/05/10 02:37:50;;;;;;;8.10;4.70;;;;;;;7.13;61.84;100547.58;105761;1253;82483;-60
2023/05/10 02:40:20;;;;;;;6.40;4.40;;;;;;;7.08;62.15;100546.96;105762;1250;72673;-59
2023/05/10 02:42:51;;;;;;;7.50;4.50;;;;;;;7.07;62.31;100547.52;105690;1254;69246;-60
2023/05/10 02:45:23;;;;;;;5.90;4.20;;;;;;;7.09;62.48;100545.90;105738;1251;69083;-60
2023/05/10 02:47:52;;;;;;;6.20;4.80;;;;;;;7.05;62.77;100543.41;105765;1250;73823;-60
2023/05/10 02:50:22;;;;;;;7.10;4.50;;;;;;;6.99;62.76;100541.08;105800;1252;83357;-60
2023/05/10 02:52:54;;;;;;;7.20;4.70;;;;;;;6.93;62.93;100537.71;105665;1257;73188;-60
2023/05/10 02:55:26;;;;;;;8.30;4.80;;;;;;;6.91;63.40;100538.97;105642;1257;69157;-60
2023/05/10 02:57:58;;;;;;;7.00;4.60;;;;;;;6.88;63.56;100537.81;105716;1254;69199;-60
2023/05/10 03:00:26;;;;;;;7.90;4.70;;;;;;;6.84;63.55;100536.86;105819;1253;73427;-60
2023/05/10 03:02:55;;;;;;;6.20;4.40;;;;;;;6.78;64.02;100536.96;105745;1251;83805;-60
2023/05/10 03:05:24;;;;;;;7.20;4.50;;;;;;;6.75;64.09;100535.13;105752;1253;71855;-60
2023/05/10 03:07:52;;;;;;;8.40;4.80;;;;;;;6.75;64.18;100531.31;105841;1250;69131;-60
2023/05/10 03:10:25;;;;;;;12.90;5.20;;;;;;;6.78;64.27;100535.25;105700;1254;69160;-60
2023/05/10 03:13:17;;;;;;;8.60;4.70;;;;;;;6.78;64.26;100537.14;105639;1256;74586;-60
2023/05/10 03:16:00;;;;;;;6.00;4.40;;;;;;;6.80;64.30;100535.54;105619;1255;83344;-60
2023/05/10 03:18:53;;;;;;;6.80;4.50;;;;;;;6.77;64.32;100533.86;105799;1253;74021;-60
2023/05/10 03:21:26;;;;;;;6.50;4.20;;;;;;;6.74;64.47;100534.63;105577;1257;69302;-60
2023/05/10 03:24:15;;;;;;;9.50;4.80;;;;;;;6.67;64.55;100535.09;105786;1251;69174;-60
2023/05/10 03:26:45;;;;;;;6.30;4.60;;;;;;;6.62;64.73;100538.14;105588;1256;74916;-60
2023/05/10 03:29:17;;;;;;;5.90;4.70;;;;;;;6.59;64.81;100536.29;105768;1253;82495;-60
2023/05/10 03:31:45;;;;;;;7.30;4.10;;;;;;;6.59;64.76;100535.77;105598;1252;73773;-60
2023/05/10 03:34:14;;;;;;;7.70;4.40;;;;;;;6.60;65.08;100539.05;105805;1253;69206;-60
2023/05/10 03:36:42;;;;;;;6.70;4.20;;;;;;;6.58;65.22;100533.52;105666;1256;69246;-60
2023/05/10 03:39:11;;;;;;;8.70;4.70;;;;;;;6.61;65.31;100534.00;105686;1251;74389;-60
2023/05/10 03:41:39;;;;;;;7.70;4.40;;;;;;;6.63;65.77;100537.60;105738;1251;83882;-60
2023/05/10 03:44:08;;;;;;;6.30;4.10;;;;;;;6.62;65.80;100536.75;105774;1250;72885;-60
2023/05/10 03:46:37;;;;;;;6.80;4.40;;;;;;;6.63;65.65;100535.34;105597;1251;69297;-60
2023/05/10 03:49:05;;;;;;;7.40;4.70;;;;;;;6.66;65.57;100532.52;105657;1254;69196;-60
2023/05/10 03:51:34;;;;;;;4.90;3.60;;;;;;;6.71;65.71;100533.81;105782;1251;74447;-60
2023/05/10 03:54:02;;;;;;;8.10;4.10;;;;;;;6.79;65.99;100528.42;105779;1251;82126;-60
2023/05/10 03:56:31;;;;;;;7.90;4.00;;;;;;;6.94;65.69;100528.16;105846;1253;73065;-60
2023/05/10 03:59:00;;;;;;;7.20;3.90;;;;;;;7.08;65.74;100528.04;105786;1251;69109;-60
2023/05/10 04:01:31;;;;;;;6.50;4.30;;;;;;;7.19;65.57;100529.73;105689;1256;69287;-60
2023/05/10 04:03:59;;;;;;;8.60;4.40;;;;;;;7.27;65.20;100524.16;105707;1251;74609;-60
2023/05/10 04:06:28;;;;;;;7.50;4.60;;;;;;;7.38;65.30;100527.04;105699;1256;83303;-60
2023/05/10 04:08:59;;;;;;;7.30;4.60;;;;;;;7.48;65.25;100526.14;105683;1251;73829;-60
2023/05/10 04:11:27;;;;;;;6.10;4.00;;;;;;;7.59;64.93;100528.14;105654;1250;69176;-60
2023/05/10 04:13:56;;;;;;;9.80;4.40;;;;;;;7.70;65.07;100525.82;105786;1253;69171;-59
2023/05/10 04:16:24;;;;;;;7.30;3.90;;;;;;;7.77;64.65;100527.91;105716;1253;73781;-60
2023/05/10 04:18:53;;;;;;;6.10;3.80;;;;;;;7.86;64.58;100528.58;105658;1251;83434;-59
2023/05/10 04:21:21;;;;;;;6.20;3.80;;;;;;;7.96;64.59;100532.67;105732;1251;73292;-59
2023/05/10 04:23:49;;;;;;;5.20;3.70;;;;;;;8.06;64.45;100530.69;105834;1253;69871;-59
2023/05/10 04:26:18;;;;;;;8.70;4.10;;;;;;;8.16;63.90;100529.92;105810;1253;69116;-59
2023/05/10 04:28:46;;;;;;;7.40;3.70;;;;;;;8.25;64.32;100525.34;105694;1250;73131;-59
2023/05/10 04:31:14;;;;;;;6.70;3.70;;;;;;;8.34;63.98;100524.61;105818;1253;83205;-59
2023/05/10 04:33:43;;;;;;;5.80;3.40;;;;;;;8.42;63.70;100525.11;105646;1251;73656;-59
2023/05/10 04:36:11;;;;;;;6.70;4.10;;;;;;;8.52;63.55;100523.64;105752;1251;69007;-59
2023/05/10 04:38:39;;;;;;;7.00;3.50;;;;;;;8.61;63.23;100523.40;105726;1254;69770;-59
2023/05/10 04:41:09;;;;;;;5.30;3.60;;;;;;;8.70;63.15;100519.66;106095;1250;74864;-59
2023/05/10 04:43:38;;;;;;;5.70;3.80;;;;;;;8.80;63.32;100517.65;105979;1253;83808;-60
2023/05/10 04:46:09;;;;;;;5.20;3.60;;;;;;;8.91;63.09;100517.85;106034;1251;73801;-59
2023/05/10 04:48:38;;;;;;;5.20;3.60;;;;;;;9.02;62.96;100515.80;106000;1251;69215;-60
2023/05/10 04:51:06;;;;;;;5.00;3.60;;;;;;;9.09;62.85;100516.64;105762;1250;69160;-60
2023/05/10 04:53:34;;;;;;;7.70;3.90;;;;;;;9.19;62.69;100517.08;105751;1253;75159;-59
2023/05/10 04:56:03;;;;;;;6.00;3.80;;;;;;;9.27;62.33;100514.20;105787;1253;83128;-60
2023/05/10 04:58:31;;;;;;;7.90;3.80;;;;;;;9.36;62.09;100515.15;105959;1251;72808;-59
2023/05/10 05:01:10;;;;;;;3.80;3.20;;;;;;;9.45;61.94;100511.91;105729;1253;69581;-59
2023/05/10 05:03:38;;;;;;;6.30;3.90;;;;;;;9.54;62.05;100510.57;105933;1253;69186;-59
2023/05/10 05:06:07;;;;;;;5.50;3.50;;;;;;;9.63;61.83;100511.20;105730;1253;73866;-59
2023/05/10 05:08:35;;;;;;;4.60;2.80;;;;;;;9.71;61.77;100509.02;105792;1251;84596;-60
2023/05/10 05:11:03;;;;;;;5.50;3.40;;;;;;;9.80;61.49;100507.52;105868;1250;73746;-59
2023/05/10 05:13:31;;;;;;;6.40;3.70;;;;;;;9.89;61.67;100509.51;105902;1250;69087;-59
2023/05/10 05:16:02;;;;;;;5.10;3.40;;;;;;;9.98;61.36;100504.83;105881;1250;69100;-60
2023/05/10 05:18:30;;;;;;;6.40;3.80;;;;;;;10.08;61.37;100501.72;105893;1250;74763;-60
2023/05/10 05:20:59;;;;;;;6.40;3.40;;;;;;;10.17;61.30;100499.84;105890;1253;83282;-60
2023/05/10 05:23:27;;;;;;;4.80;3.30;;;;;;;10.27;61.11;100503.71;105742;1250;73400;-60
2023/05/10 05:25:55;;;;;;;4.90;3.30;;;;;;;10.36;60.89;100497.83;105891;1253;69182;-61
2023/05/10 05:28:23;;;;;;;7.20;3.70;;;;;;;10.44;60.62;100502.44;105863;1253;69275;-60
2023/05/10 05:30:52;;;;;;;6.90;3.90;;;;;;;10.53;60.26;100501.61;105745;1251;74898;-60
2023/05/10 05:33:20;;;;;;;6.20;3.20;;;;;;;10.61;60.05;100503.05;105809;1251;83475;-59
2023/05/10 05:35:50;;;;;;;9.30;3.70;;;;;;;10.71;60.33;100496.39;105713;1250;175707;-61
2023/05/10 05:38:18;;;;;;;6.20;3.70;;;;;;;10.82;59.87;100495.48;105989;1253;69119;-60
2023/05/10 05:40:47;;;;;;;6.50;3.50;;;;;;;10.91;59.72;100490.95;105822;1253;69128;-60
2023/05/10 05:43:15;;;;;;;7.90;3.70;;;;;;;11.03;59.78;100496.29;105756;1251;74603;-61
2023/05/10 05:45:43;;;;;;;5.80;3.30;;;;;;;11.15;59.35;100491.65;105816;1253;83179;-60
2023/05/10 05:48:12;;;;;;;4.10;3.00;;;;;;;11.25;59.15;100494.08;105807;1253;73586;-59
2023/05/10 05:50:40;;;;;;;9.70;3.80;;;;;;;11.35;58.84;100491.92;105862;1253;69115;-61
2023/05/10 05:53:08;;;;;;;6.10;3.50;;;;;;;11.44;59.00;100491.39;105732;1253;69119;-60
2023/05/10 05:55:37;;;;;;;5.90;2.90;;;;;;;11.55;58.63;100491.34;105932;1250;74900;-61
2023/05/10 05:58:05;;;;;;;6.00;3.50;;;;;;;11.65;58.57;100492.16;105787;1251;83309;-60
2023/05/10 06:00:33;;;;;;;6.80;3.40;;;;;;;11.74;58.16;100492.32;105890;1253;73761;-61
2023/05/10 06:03:01;;;;;;;4.80;2.70;;;;;;;11.81;57.82;100493.41;105762;1253;69209;-60
2023/05/10 06:05:30;;;;;;;10.80;3.10;;;;;;;11.90;57.72;100495.74;105698;1251;69061;-61
2023/05/10 06:08:00;;;;;;;4.90;3.10;;;;;;;11.99;57.42;100500.42;105850;1250;75260;-61
2023/05/10 06:10:28;;;;;;;5.70;3.20;;;;;;;12.10;57.29;100495.08;105877;1251;83991;-61
2023/05/10 06:12:56;;;;;;;7.90;3.10;;;;;;;12.20;57.14;100491.66;105924;1251;73679;-61
2023/05/10 06:15:25;;;;;;;6.60;3.00;;;;;;;12.30;56.97;100496.48;105780;1253;69194;-59
2023/05/10 06:17:53;;;;;;;4.90;2.80;;;;;;;12.38;56.85;100498.59;105867;1251;69081;-59
2023/05/10 06:20:21;;;;;;;11.50;3.60;;;;;;;12.49;56.96;100498.15;105831;1250;75496;-58
2023/05/10 06:22:50;;;;;;;6.10;3.00;;;;;;;12.59;56.39;100498.59;105980;1253;83406;-60
2023/05/10 06:25:18;;;;;;;5.20;3.00;;;;;;;12.71;56.97;100495.27;105794;1252;72316;-59
2023/05/10 06:27:46;;;;;;;9.00;3.00;;;;;;;12.83;56.54;100492.08;105744;1249;69070;-59
2023/05/10 06:30:22;;;;;;;4.70;2.90;;;;;;;12.95;56.14;100494.52;105907;1249;69023;-59
2023/05/10 06:32:51;;;;;;;3.60;2.60;;;;;;;13.01;55.58;100494.98;105834;1250;75043;-59
2023/05/10 06:35:20;;;;;;;12.10;3.20;;;;;;;13.07;55.57;100496.10;105905;1253;83245;-60
2023/05/10 06:37:49;;;;;;;28.80;4.40;;;;;;;13.18;55.50;100492.95;105897;1251;74205;-59
2023/05/10 06:40:18;;;;;;;7.70;3.20;;;;;;;13.30;55.53;100488.40;105808;1250;69523;-59
2023/05/10 06:42:47;;;;;;;5.40;2.70;;;;;;;13.39;55.11;100486.75;105943;1250;69779;-60
2023/05/10 06:45:16;;;;;;;3.50;2.50;;;;;;;13.49;54.76;100491.38;106097;1250;74897;-60
2023/05/10 06:47:45;;;;;;;7.10;3.10;;;;;;;13.52;54.52;100490.85;105843;1253;83788;-59
2023/05/10 06:50:14;;;;;;;4.40;2.50;;;;;;;13.61;54.42;100492.38;105873;1250;73937;-59
2023/05/10 06:52:42;;;;;;;5.10;3.20;;;;;;;13.70;54.26;100483.87;105926;1253;69202;-59
2023/05/10 06:55:11;;;;;;;6.30;2.90;;;;;;;13.78;54.13;100486.42;106006;1250;69176;-60
2023/05/10 06:57:39;;;;;;;4.60;2.60;;;;;;;13.86;53.97;100479.04;105811;1253;73376;-60
2023/05/10 07:00:09;;;;;;;3.60;2.80;;;;;;;13.93;53.74;100479.53;106082;1250;83194;-60
2023/05/10 07:02:37;;;;;;;6.40;2.90;;;;;;;14.03;53.80;100476.06;106140;1251;74629;-61
2023/05/10 07:05:06;;;;;;;4.60;3.10;;;;;;;14.12;53.58;100472.63;105829;1253;69163;-61
2023/05/10 07:07:34;;;;;;;5.60;3.30;;;;;;;14.18;53.39;100470.19;105812;1251;69189;-60
2023/05/10 07:10:03;;;;;;;4.00;2.80;;;;;;;14.27;53.46;100470.47;105806;1252;74955;-60
2023/05/10 07:12:31;;;;;;;4.60;2.70;;;;;;;14.37;53.69;100468.73;105804;1253;83464;-61
2023/05/10 07:15:00;;;;;;;5.10;2.80;;;;;;;14.48;53.27;100464.64;105810;1251;72680;-61
2023/05/10 07:17:28;;;;;;;5.40;3.00;;;;;;;14.56;53.09;100464.96;105765;1253;69195;-61
2023/05/10 07:19:56;;;;;;;5.70;3.00;;;;;;;14.64;52.84;100463.14;105804;1253;69266;-60
2023/05/10 07:22:25;;;;;;;7.10;3.10;;;;;;;14.69;52.57;100468.30;105787;1251;74423;-61
2023/05/10 07:24:54;;;;;;;10.60;3.80;;;;;;;14.78;52.51;100466.09;105764;1252;83193;-61
2023/05/10 07:27:22;;;;;;;7.10;2.80;;;;;;;14.87;52.47;100458.36;105834;1249;72733;-60
2023/05/10 07:29:50;;;;;;;7.40;3.30;;;;;;;14.99;52.42;100458.45;105747;1249;69148;-60
2023/05/10 07:32:18;;;;;;;5.10;2.90;;;;;;;15.10;52.33;100454.83;105710;1251;69182;-61
2023/05/10 07:34:46;;;;;;;5.20;2.70;;;;;;;15.21;52.05;100460.05;105716;1253;75182;-60
2023/05/10 07:37:15;;;;;;;4.20;2.90;;;;;;;15.29;51.78;100455.38;105756;1251;82946;-60
2023/05/10 07:39:43;;;;;;;4.50;2.60;;;;;;;15.36;51.53;100450.41;105780;1251;72590;-61
2023/05/10 07:42:11;;;;;;;7.20;2.90;;;;;;;15.45;51.43;100450.96;105709;1250;69167;-60
2023/05/10 07:44:39;;;;;;;4.80;2.90;;;;;;;15.53;51.16;100450.52;105759;1250;69202;-60
2023/05/10 07:47:08;;;;;;;4.00;2.30;;;;;;;15.60;50.96;100450.45;105732;1253;75208;-60
2023/05/10 07:49:36;;;;;;;4.50;2.50;;;;;;;15.69;50.92;100451.17;105770;1253;83046;-61
2023/05/10 07:52:04;;;;;;;4.30;2.60;;;;;;;15.80;50.80;100448.48;105744;1251;73493;-61
2023/05/10 07:54:33;;;;;;;3.90;2.70;;;;;;;15.85;50.60;100442.66;105775;1253;70032;-61
2023/05/10 07:57:01;;;;;;;6.50;3.00;;;;;;;15.93;50.36;100437.67;105805;1250;69164;-61
2023/05/10 07:59:30;;;;;;;7.80;2.70;;;;;;;16.02;50.21;100439.78;105800;1253;73650;-60
2023/05/10 08:01:58;;;;;;;5.80;2.80;;;;;;;16.10;50.19;100431.55;105858;1251;83396;-61
2023/05/10 08:04:26;;;;;;;5.40;2.80;;;;;;;16.20;49.96;100432.16;105701;1253;73763;-61
2023/05/10 08:06:55;;;;;;;5.70;3.00;;;;;;;16.28;49.69;100430.30;105787;1253;69151;-61
2023/05/10 08:09:23;;;;;;;4.00;2.60;;;;;;;16.35;49.58;100431.45;105772;1253;69145;-61
2023/05/10 08:11:52;;;;;;;6.20;2.60;;;;;;;16.43;49.21;100432.88;105766;1253;74104;-61
2023/05/10 08:14:20;;;;;;;4.80;2.50;;;;;;;16.50;49.03;100425.59;105806;1253;83283;-60
2023/05/10 08:16:48;;;;;;;3.20;2.30;;;;;;;16.62;49.16;100427.33;105679;1251;73929;-60
2023/05/10 08:19:21;;;;;;;4.50;2.40;;;;;;;16.74;48.89;100429.04;105766;1250;69157;-61
2023/05/10 08:21:49;;;;;;;3.50;2.80;;;;;;;16.88;49.02;100432.11;105812;1253;69160;-60
2023/05/10 08:24:17;;;;;;;3.70;2.10;;;;;;;16.98;48.57;100433.08;105711;1250;74610;-61
2023/05/10 08:26:46;;;;;;;6.20;3.10;;;;;;;17.04;48.40;100431.95;105728;1253;82925;-61
2023/05/10 08:29:15;;;;;;;4.70;2.50;;;;;;;17.16;48.65;100429.96;105725;1253;73149;-61
2023/05/10 08:31:43;;;;;;;6.60;2.30;;;;;;;17.31;48.20;100432.88;105720;1251;69119;-60
2023/05/10 08:34:11;;;;;;;4.60;2.40;;;;;;;17.39;47.85;100432.55;105715;1252;69180;-61
2023/05/10 08:36:39;;;;;;;4.60;2.30;;;;;;;17.46;47.65;100433.13;105795;1250;74547;-61
2023/05/10 08:39:08;;;;;;;7.50;2.20;;;;;;;17.50;47.06;100435.88;105719;1253;83300;-61
2023/05/10 08:42:02;;;;;;;5.00;2.20;;;;;;;17.49;46.60;100436.35;105717;1251;73359;-61
2023/05/10 08:44:35;;;;;;;5.90;2.60;;;;;;;17.58;46.82;100434.86;105765;1250;69054;-61
2023/05/10 08:47:06;;;;;;;4.60;2.10;;;;;;;17.70;46.68;100436.69;105857;1251;69135;-60
2023/05/10 08:49:35;;;;;;;4.50;2.20;;;;;;;17.80;46.60;100430.40;105714;1253;74344;-61
2023/05/10 08:52:05;;;;;;;5.40;2.30;;;;;;;17.90;46.17;100437.38;105681;1251;83664;-61
2023/05/10 08:54:34;;;;;;;;;;;;;;;17.90;46.02;100437.14;105839;1251;73725;-61
2023/05/10 08:57:02;;;;;;;2.70;2.00;;;;;;;18.01;46.21;100441.54;105860;1250;69188;-61
2023/05/10 08:59:31;;;;;;;5.10;2.30;;;;;;;18.06;45.83;100443.86;105776;1251;69173;-60
2023/05/10 09:02:00;;;;;;;4.00;2.10;;;;;;;18.05;45.34;100441.30;105721;1256;74993;-61
2023/05/10 09:04:29;;;;;;;4.00;2.40;;;;;;;18.03;45.25;100434.67;105810;1250;83477;-61
2023/05/10 09:06:57;;;;;;;3.30;1.90;;;;;;;18.11;45.35;100434.39;105662;1250;73848;-61
2023/05/10 09:09:27;;;;;;;7.10;2.30;;;;;;;18.15;45.19;100442.02;105749;1253;69226;-61
2023/05/10 09:11:55;;;;;;;5.80;1.90;;;;;;;18.19;44.91;100446.56;105809;1251;69177;-61
2023/05/10 09:14:24;;;;;;;6.00;2.20;;;;;;;18.24;45.02;100431.54;105615;1256;73958;-61
2023/05/10 09:16:54;;;;;;;6.10;2.20;;;;;;;18.35;44.87;100439.63;105715;1250;83452;-61
2023/05/10 09:19:23;;;;;;;5.80;2.50;;;;;;;18.37;44.70;100428.52;105620;1250;72424;-61
2023/05/10 09:21:51;;;;;;;5.20;2.00;;;;;;;18.51;44.75;100426.33;105733;1253;69119;-61
2023/05/10 09:24:25;;;;;;;3.60;1.90;;;;;;;18.66;44.72;100428.79;105761;1251;69106;-61
2023/05/10 09:26:53;;;;;;;8.40;1.90;;;;;;;18.79;43.97;100430.95;105730;1251;75403;-61
2023/05/10 09:29:21;;;;;;;6.10;2.00;;;;;;;18.90;44.14;100432.95;105718;1251;82259;-61
2023/05/10 09:31:51;;;;;;;2.80;1.80;;;;;;;19.07;44.06;100438.11;105619;1250;73345;-61
2023/05/10 09:34:23;;;;;;;5.70;2.40;;;;;;;19.21;43.72;100435.33;105717;1253;69186;-61
2023/05/10 09:36:52;;;;;;;4.10;2.30;;;;;;;19.31;43.38;100439.06;105710;1250;69140;-61
2023/05/10 09:39:21;;;;;;;3.00;2.00;;;;;;;19.35;42.94;100437.50;105750;1253;75035;-61
2023/05/10 09:41:49;;;;;;;3.70;2.10;;;;;;;19.43;42.81;100441.34;105623;1251;83474;-61
2023/05/10 09:44:18;;;;;;;4.20;1.90;;;;;;;19.49;42.79;100437.38;105741;1251;73267;-61
2023/05/10 09:46:50;;;;;;;4.10;1.90;;;;;;;19.67;42.99;100437.45;105769;1249;69209;-61
2023/05/10 09:49:21;;;;;;;4.00;2.40;;;;;;;19.83;42.50;100436.62;105699;1253;69137;-61
2023/05/10 09:52:06;;;;;;;5.40;2.40;;;;;;;19.95;41.98;100442.98;105715;1253;75281;-61
2023/05/10 09:54:34;;;;;;;5.80;2.00;;;;;;;19.99;41.55;100437.75;105824;1253;83658;-61
2023/05/10 09:57:03;;;;;;;3.30;2.10;;;;;;;20.09;41.61;100437.13;105777;1251;72669;-61
2023/05/10 09:59:34;;;;;;;4.60;2.20;;;;;;;20.24;41.33;100434.95;105693;1251;69283;-61
2023/05/10 10:02:03;;;;;;;6.30;2.00;;;;;;;20.40;41.38;100438.67;105747;1252;69190;-61
2023/05/10 10:04:32;;;;;;;2.30;1.70;;;;;;;20.61;41.08;100435.65;105803;1253;73892;-61
2023/05/10 10:07:05;;;;;;;4.80;2.00;;;;;;;20.80;40.56;100432.58;105784;1253;83157;-61
2023/05/10 10:09:34;;;;;;;4.90;2.20;;;;;;;20.90;40.39;100430.85;105774;1250;73740;-61
2023/05/10 10:12:03;;;;;;;2.40;1.80;;;;;;;21.08;40.30;100421.59;105807;1253;69109;-61
2023/05/10 10:14:31;;;;;;;5.80;2.30;;;;;;;21.33;40.07;100412.16;105736;1251;69166;-61
2023/05/10 10:17:00;;;;;;;5.00;1.80;;;;;;;21.54;39.96;100410.45;105774;1251;75235;-60
2023/05/10 10:19:34;;;;;;;10.30;2.30;;;;;;;21.83;39.75;100409.81;105202;1259;83386;-61
2023/05/10 10:22:02;;;;;;;7.10;2.00;;;;;;;22.03;39.27;100408.64;105217;1257;73953;-61
2023/05/10 10:24:31;;;;;;;3.10;1.90;;;;;;;22.16;38.90;100401.99;105282;1257;69209;-61
2023/05/10 10:27:25;;;;;;;4.80;1.60;;;;;;;22.34;38.52;100402.14;105358;1256;69341;-61
2023/05/10 10:30:09;;;;;;;2.60;1.80;;;;;;;22.58;38.56;100405.89;105203;1259;74377;-61
2023/05/10 10:33:12;;;;;;;5.40;2.10;;;;;;;22.90;37.88;100411.77;105218;1257;83462;-61
2023/05/10 10:35:58;;;;;;;3.00;1.90;;;;;;;23.13;37.73;100412.79;105008;1257;73727;-61
2023/05/10 10:38:59;;;;;;;2.20;1.70;;;;;;;23.33;37.28;100411.53;105580;1251;69190;-62
2023/05/10 10:41:42;;;;;;;2.20;1.90;;;;;;;23.45;36.64;100411.67;105840;1253;69180;-62
2023/05/10 10:44:36;;;;;;;5.50;2.00;;;;;;;23.63;36.67;100402.06;105667;1256;74284;-61
2023/05/10 10:47:23;;;;;;;2.00;1.60;;;;;;;23.87;36.72;100390.09;105707;1253;82833;-61
2023/05/10 10:50:02;;;;;;;5.20;1.90;;;;;;;23.85;36.39;100386.48;105739;1250;72683;-61
2023/05/10 10:52:37;;;;;;;5.20;1.90;;;;;;;23.85;36.07;100403.06;105711;1251;69105;-61
2023/05/10 10:55:12;;;;;;;2.60;1.70;;;;;;;24.02;35.73;100400.98;105803;1251;69087;-61
2023/05/10 10:57:40;;;;;;;4.20;2.00;;;;;;;24.21;35.58;100397.35;105779;1250;74665;-61
2023/05/10 11:00:37;;;;;;;2.60;1.80;;;;;;;24.40;35.56;100387.05;105826;1253;83093;-61
2023/05/10 11:03:07;;;;;;;2.90;1.60;;;;;;;24.73;35.54;100385.46;105712;1250;73418;-61
2023/05/10 11:05:39;;;;;;;2.70;1.60;;;;;;;24.91;34.65;100391.54;105801;1251;69128;-58
2023/05/10 11:08:10;;;;;;;3.20;1.80;;;;;;;24.98;34.22;100386.96;105762;1253;69257;-59
2023/05/10 11:10:39;;;;;;;4.20;1.70;;;;;;;25.03;34.03;100385.02;105728;1253;73831;-59
2023/05/10 11:13:10;;;;;;;1.90;1.40;;;;;;;25.16;34.11;100378.73;105731;1249;83315;-59
2023/05/10 11:15:39;;;;;;;2.90;1.50;;;;;;;25.38;33.78;100381.61;105713;1251;73446;-58
2023/05/10 11:18:28;;;;;;;4.00;1.70;;;;;;;25.57;33.68;100382.75;105760;1250;69215;-59
2023/05/10 11:21:10;;;;;;;2.90;1.70;;;;;;;25.71;33.20;100376.80;105796;1250;69182;-59
2023/05/10 11:23:56;;;;;;;3.60;1.40;;;;;;;25.86;33.39;100374.23;105779;1251;74404;-59
2023/05/10 11:26:25;;;;;;;3.60;1.60;;;;;;;25.87;33.13;100371.31;105683;1250;83714;-59
2023/05/10 11:28:55;;;;;;;3.70;1.60;;;;;;;25.68;32.89;100379.50;105690;1251;72730;-59
2023/05/10 11:31:23;;;;;;;6.00;2.30;;;;;;;25.76;32.71;100388.86;105722;1253;69175;-60
2023/05/10 11:33:56;;;;;;;3.40;2.00;;;;;;;25.81;31.91;100387.34;105793;1251;69162;-60
2023/05/10 11:36:35;;;;;;;4.50;1.90;;;;;;;25.80;32.25;100376.31;105762;1253;74997;-60
2023/05/10 11:39:05;;;;;;;29.90;3.90;;;;;;;25.99;32.13;100370.67;105746;1253;83472;-60
2023/05/10 11:41:33;;;;;;;3.80;2.00;;;;;;;25.72;32.19;100367.77;105756;1251;73742;-60